Time;durP1;ratioP1;P1;durP2;ratioP2;P2;SDS_P1;SDS_P2;PMS_P1;PMS_P2;Temp;Humidity;BMP_temperature;BMP_pressure;BME280_temperature;BME280_humidity;BME280_pressure;Samples;Min_cycle;Max_cycle;Signal;HPM_P1;HPM_P2
2022/06/18 00:00:00;;;;;;;;;;;;;;;18.91;62.03;100876.47;4942676;28;1201;-59
2022/06/18 00:02:25;;;;;;;;;;;;;;;17.17;63.69;100886.16;4960029;28;1010;-59
2022/06/18 00:04:51;;;;;;;;;;;;;;;17.52;71.63;100887.25;4957528;28;870;-59
2022/06/18 00:07:18;;;;;;;;;;;;;;;18.85;67.60;100882.31;4958769;28;1121;-57
2022/06/18 00:09:44;;;;;;;;;;;;;;;19.75;61.49;100878.19;4941341;29;956;-57
2022/06/18 00:14:58;;;;;;;;;;;;;;;17.09;66.35;100887.53;4958386;29;1086;-58
2022/06/18 00:17:23;;;;;;;;;;;;;;;18.75;70.35;100872.19;4958108;29;1902;-58
2022/06/18 00:19:49;;;;;;;;;;;;;;;19.78;62.37;100877.63;4961470;28;1015;-58
2022/06/18 00:22:15;;;;;;;;;;;;;;;18.97;58.30;100872.59;4961203;28;920;-58
2022/06/18 00:24:41;;;;;;;;;;;;;;;17.30;64.38;100871.84;4958104;29;1590;-58
2022/06/18 00:27:09;;;;;;;;;;;;;;;16.75;65.41;100866.84;4959456;28;979;-59
2022/06/18 00:29:35;;;;;;;;;;;;;;;17.90;69.04;100871.19;4925101;29;1134;-58
2022/06/18 00:32:00;;;;;;;;;;;;;;;19.26;67.69;100859.94;4958017;29;995;-59
2022/06/18 00:34:25;;;;;;;;;;;;;;;18.86;64.06;100856.38;4957626;29;1130;-58
2022/06/18 00:36:51;;;;;;;;;;;;;;;17.18;63.19;100863.06;4956432;29;1969;-59
2022/06/18 00:39:17;;;;;;;;;;;;;;;17.64;71.79;100871.25;4940587;29;1400;-58
2022/06/18 00:41:43;;;;;;;;;;;;;;;18.85;67.13;100874.84;4957584;29;971;-59
2022/06/18 00:44:28;;;;;;;;;;;;;;;19.72;60.96;100867.75;4961505;28;1058;-59
2022/06/18 00:46:56;;;;;;;;;;;;;;;18.18;65.09;100872.47;4957959;29;1018;-57
2022/06/18 00:49:30;;;;;;;;;;;;;;;16.81;62.64;100869.63;4957537;29;1117;-57
2022/06/18 00:52:04;;;;;;;;;;;;;;;18.50;71.21;100856.66;4937263;29;1140;-57
2022/06/18 00:54:34;;;;;;;;;;;;;;;19.73;63.93;100854.81;4938297;29;1197;-57
2022/06/18 00:57:02;;;;;;;;;;;;;;;19.27;57.90;100843.13;4943601;29;2009;-58
2022/06/18 00:59:37;;;;;;;;;;;;;;;17.28;63.81;100852.91;4923534;29;1344;-58
2022/06/18 01:02:02;;;;;;;;;;;;;;;17.23;69.68;100860.31;4937498;29;1082;-57
2022/06/18 01:04:33;;;;;;;;;;;;;;;18.44;67.83;100869.63;4937276;29;1062;-58
2022/06/18 01:06:59;;;;;;;;;;;;;;;19.85;65.90;100873.72;4937429;29;1112;-58
2022/06/18 01:09:25;;;;;;;;;;;;;;;18.01;63.96;100853.56;4944616;29;1120;-58
2022/06/18 01:11:51;;;;;;;;;;;;;;;17.03;65.97;100863.91;4925732;29;2025;-58
2022/06/18 01:14:17;;;;;;;;;;;;;;;18.61;71.54;100858.22;4944837;28;1259;-58
2022/06/18 01:16:44;;;;;;;;;;;;;;;19.71;63.50;100855.06;4925746;29;1963;-57
2022/06/18 01:19:20;;;;;;;;;;;;;;;19.66;57.57;100863.41;4925359;29;1181;-57
2022/06/18 01:21:55;;;;;;;;;;;;;;;17.43;64.18;100849.31;4927078;29;1196;-57
2022/06/18 01:24:21;;;;;;;;;;;;;;;16.88;64.73;100853.69;4940715;29;1145;-57
2022/06/18 01:26:47;;;;;;;;;;;;;;;17.66;70.21;100855.31;4924710;29;1227;-58
2022/06/18 01:29:14;;;;;;;;;;;;;;;19.13;69.84;100853.19;4925193;29;1120;-57
2022/06/18 01:31:39;;;;;;;;;;;;;;;18.75;63.99;100850.97;4946639;29;1348;-57
2022/06/18 01:34:05;;;;;;;;;;;;;;;17.05;61.75;100884.50;4932316;29;1299;-58
2022/06/18 01:36:34;;;;;;;;;;;;;;;18.29;71.15;100870.53;4942858;29;1972;-57
2022/06/18 01:38:59;;;;;;;;;;;;;;;19.68;65.53;100855.66;4940423;29;1443;-57
2022/06/18 01:44:16;;;;;;;;;;;;;;;17.26;62.66;100876.25;4927745;29;1103;-57
2022/06/18 01:46:42;;;;;;;;;;;;;;;17.67;71.40;100881.72;4940345;29;893;-58
2022/06/18 01:49:10;;;;;;;;;;;;;;;19.15;65.32;100875.75;4939824;29;1066;-58
2022/06/18 01:51:36;;;;;;;;;;;;;;;19.84;56.81;100870.16;4924647;29;1289;-57
2022/06/18 01:54:04;;;;;;;;;;;;;;;18.55;62.24;100873.13;4940619;29;1209;-57
2022/06/18 01:56:31;;;;;;;;;;;;;;;17.27;63.86;100870.47;4939752;29;1977;-57
2022/06/18 01:58:59;;;;;;;;;;;;;;;17.58;69.38;100877.88;4924504;29;1145;-57
2022/06/18 02:01:38;;;;;;;;;;;;;;;19.32;68.74;100881.69;4939936;29;1287;-58
2022/06/18 02:04:04;;;;;;;;;;;;;;;18.71;62.38;100873.88;4929840;29;1618;-58
2022/06/18 02:06:30;;;;;;;;;;;;;;;17.05;63.44;100886.41;4939711;29;1138;-58
2022/06/18 02:08:56;;;;;;;;;;;;;;;18.25;71.63;100885.94;4921183;29;1154;-58
2022/06/18 02:11:21;;;;;;;;;;;;;;;19.62;65.34;100881.66;4943734;29;928;-58
2022/06/18 02:13:48;;;;;;;;;;;;;;;20.03;57.49;100874.91;4944461;29;1011;-58
2022/06/18 02:16:15;;;;;;;;;;;;;;;17.47;61.70;100876.25;4939342;29;1910;-58
2022/06/18 02:18:41;;;;;;;;;;;;;;;17.09;68.90;100882.03;4940678;29;1066;-59
2022/06/18 02:21:07;;;;;;;;;;;;;;;18.90;70.09;100868.50;4940727;28;1318;-59
2022/06/18 02:23:33;;;;;;;;;;;;;;;19.80;60.83;100864.38;4939596;29;1176;-58
2022/06/18 02:25:59;;;;;;;;;;;;;;;20.16;55.68;100863.97;4940834;29;1138;-58
2022/06/18 02:28:29;;;;;;;;;;;;;;;17.87;63.36;100874.50;4941265;28;952;-58
2022/06/18 02:30:55;;;;;;;;;;;;;;;16.83;62.92;100868.25;4940799;29;1054;-58
2022/06/18 02:33:41;;;;;;;;;;;;;;;18.11;69.60;100869.22;4923524;29;1069;-57
2022/06/18 02:36:11;;;;;;;;;;;;;;;19.80;65.99;100867.16;4939091;29;1915;-57
2022/06/18 02:38:37;;;;;;;;;;;;;;;17.60;61.46;100876.50;4926733;29;1366;-57
2022/06/18 02:41:03;;;;;;;;;;;;;;;17.14;69.50;100886.69;4941973;29;1213;-57
2022/06/18 02:43:28;;;;;;;;;;;;;;;18.87;70.51;100883.69;4940874;29;1077;-57
2022/06/18 02:45:54;;;;;;;;;;;;;;;19.74;61.02;100886.78;4944048;29;1298;-58
2022/06/18 02:48:21;;;;;;;;;;;;;;;20.11;55.54;100891.63;4938646;29;1007;-58
2022/06/18 02:50:47;;;;;;;;;;;;;;;17.94;63.17;100886.06;4938280;29;1146;-57
2022/06/18 02:53:12;;;;;;;;;;;;;;;17.15;64.76;100897.41;4920071;29;1882;-58
2022/06/18 02:55:45;;;;;;;;;;;;;;;17.48;69.11;100894.38;4917051;29;2132;-57
2022/06/18 02:58:10;;;;;;;;;;;;;;;19.08;69.49;100891.78;4928561;29;2003;-57
2022/06/18 03:00:38;;;;;;;;;;;;;;;18.77;64.19;100876.28;4927514;29;2354;-58
2022/06/18 03:03:05;;;;;;;;;;;;;;;17.09;62.53;100891.09;4926486;29;878;-57
2022/06/18 03:05:32;;;;;;;;;;;;;;;18.15;71.82;100894.25;4930423;29;1118;-58
2022/06/18 03:07:57;;;;;;;;;;;;;;;19.45;64.83;100880.16;4928130;29;1237;-59
2022/06/18 03:13:07;;;;;;;;;;;;;;;18.12;63.42;100876.38;4924294;29;1117;-58
2022/06/18 03:15:37;;;;;;;;;;;;;;;16.93;61.87;100878.47;4922171;29;1157;-57
2022/06/18 03:18:04;;;;;;;;;;;;;;;18.21;69.93;100876.59;4927995;29;1977;-58
2022/06/18 03:20:51;;;;;;;;;;;;;;;19.73;66.21;100882.41;4933692;29;1290;-58
2022/06/18 03:23:17;;;;;;;;;;;;;;;17.73;61.45;100885.28;4912169;29;1136;-59
2022/06/18 03:25:43;;;;;;;;;;;;;;;17.01;68.10;100883.41;4934478;29;1353;-58
2022/06/18 03:28:10;;;;;;;;;;;;;;;18.78;70.69;100886.19;4934342;29;1658;-58
2022/06/18 03:30:39;;;;;;;;;;;;;;;19.74;61.31;100875.75;4929776;29;2055;-59
2022/06/18 03:33:05;;;;;;;;;;;;;;;20.13;56.04;100889.41;4933051;29;1260;-58
2022/06/18 03:35:30;;;;;;;;;;;;;;;17.82;63.83;100888.28;4925121;29;1105;-58
2022/06/18 03:37:56;;;;;;;;;;;;;;;17.03;64.92;100897.69;4922577;29;1964;-58
2022/06/18 03:40:22;;;;;;;;;;;;;;;17.52;68.34;100890.81;4923726;29;1298;-58
2022/06/18 03:42:49;;;;;;;;;;;;;;;18.95;69.52;100882.25;4920980;29;1142;-58
2022/06/18 03:45:14;;;;;;;;;;;;;;;19.85;63.48;100882.00;4922074;29;1232;-58
2022/06/18 03:47:40;;;;;;;;;;;;;;;17.40;61.43;100876.53;4918965;29;1195;-59
2022/06/18 03:50:05;;;;;;;;;;;;;;;17.53;70.76;100886.13;4931602;29;1022;-58
2022/06/18 03:52:32;;;;;;;;;;;;;;;19.32;68.74;100891.88;4930921;29;1614;-57
2022/06/18 03:54:58;;;;;;;;;;;;;;;19.75;60.80;100882.91;4925290;29;1142;-57
2022/06/18 03:57:23;;;;;;;;;;;;;;;17.46;62.51;100891.94;4921816;29;1906;-59
2022/06/18 03:59:49;;;;;;;;;;;;;;;17.36;70.70;100891.91;4924487;29;1267;-59
2022/06/18 04:02:15;;;;;;;;;;;;;;;19.03;68.89;100891.81;4918738;29;1328;-57
2022/06/18 04:04:42;;;;;;;;;;;;;;;19.77;59.54;100892.53;4921860;29;1283;-58
2022/06/18 04:07:14;;;;;;;;;;;;;;;18.86;62.13;100890.28;4920093;29;1169;-58
2022/06/18 04:09:53;;;;;;;;;;;;;;;17.27;64.56;100894.41;4904627;29;1250;-58
2022/06/18 04:12:23;;;;;;;;;;;;;;;17.23;68.27;100887.81;4920158;29;1187;-57
2022/06/18 04:15:12;;;;;;;;;;;;;;;19.10;69.67;100867.53;4908535;29;1229;-58
2022/06/18 04:17:46;;;;;;;;;;;;;;;19.96;61.14;100875.25;4922863;29;1981;-57
2022/06/18 04:20:19;;;;;;;;;;;;;;;17.63;61.00;100875.13;4914488;29;1121;-57
2022/06/18 04:22:44;;;;;;;;;;;;;;;16.93;67.49;100884.78;4919472;29;964;-57
2022/06/18 04:25:12;;;;;;;;;;;;;;;18.73;70.38;100883.50;4918279;29;1202;-57
2022/06/18 04:27:37;;;;;;;;;;;;;;;19.71;60.50;100887.38;4918257;29;1074;-57
2022/06/18 04:30:03;;;;;;;;;;;;;;;20.00;56.84;100899.19;4921005;29;1181;-56
2022/06/18 04:32:47;;;;;;;;;;;;;;;17.54;64.71;100907.03;4918721;29;1180;-57
2022/06/18 04:35:13;;;;;;;;;;;;;;;16.87;63.40;100901.47;4918458;29;1242;-57
2022/06/18 04:37:44;;;;;;;;;;;;;;;17.87;70.44;100918.53;4920375;29;1971;-58
2022/06/18 04:40:32;;;;;;;;;;;;;;;19.53;67.96;100913.75;4917305;29;1126;-58
2022/06/18 04:43:16;;;;;;;;;;;;;;;18.35;61.22;100918.94;4913632;29;1320;-58
2022/06/18 04:45:47;;;;;;;;;;;;;;;16.95;64.49;100924.88;4918278;29;1180;-56
2022/06/18 04:48:18;;;;;;;;;;;;;;;18.13;72.35;100939.38;4918544;29;1142;-56
2022/06/18 04:50:44;;;;;;;;;;;;;;;19.47;65.73;100932.28;4925238;29;1178;-57
2022/06/18 04:53:11;;;;;;;;;;;;;;;20.03;57.62;100927.34;4937456;29;1180;-56
2022/06/18 04:55:38;;;;;;;;;;;;;;;17.93;62.97;100918.25;4937251;29;1195;-58
2022/06/18 04:58:04;;;;;;;;;;;;;;;16.99;64.02;100937.78;4937868;29;1906;-56
2022/06/18 05:00:32;;;;;;;;;;;;;;;17.70;69.50;100947.16;4940890;29;1125;-56
2022/06/18 05:03:17;;;;;;;;;;;;;;;19.40;67.90;100954.66;4926195;29;1424;-57
2022/06/18 05:06:01;;;;;;;;;;;;;;;17.86;62.49;100955.38;4931605;29;1023;-56
2022/06/18 05:08:42;;;;;;;;;;;;;;;16.82;65.04;100970.16;4937132;29;1275;-58
2022/06/18 05:11:23;;;;;;;;;;;;;;;18.12;71.18;100970.75;4937299;29;1196;-57
2022/06/18 05:14:04;;;;;;;;;;;;;;;19.36;64.65;100967.38;4942593;29;1262;-57
2022/06/18 05:16:31;;;;;;;;;;;;;;;18.88;65.39;100970.75;4938112;29;1922;-58
2022/06/18 05:18:58;;;;;;;;;;;;;;;17.24;61.83;100971.91;4940523;29;996;-58
2022/06/18 05:21:23;;;;;;;;;;;;;;;17.76;71.45;100979.03;4936355;28;1502;-58
2022/06/18 05:23:52;;;;;;;;;;;;;;;19.23;67.85;100970.81;4940733;29;1206;-57
2022/06/18 05:26:21;;;;;;;;;;;;;;;19.91;58.88;100966.38;4938714;29;991;-56
2022/06/18 05:28:47;;;;;;;;;;;;;;;18.64;58.99;100959.56;4941398;29;1090;-56
2022/06/18 05:31:12;;;;;;;;;;;;;;;17.18;64.73;100961.97;4938613;28;1275;-56
2022/06/18 05:33:38;;;;;;;;;;;;;;;16.90;65.40;100972.38;4938303;29;1112;-57
2022/06/18 05:36:04;;;;;;;;;;;;;;;17.64;70.05;100967.50;4937026;29;1185;-56
2022/06/18 05:38:29;;;;;;;;;;;;;;;18.95;70.06;100973.19;4936734;29;1985;-58
2022/06/18 05:40:56;;;;;;;;;;;;;;;19.29;65.70;100964.13;4937170;29;1168;-57
2022/06/18 05:43:22;;;;;;;;;;;;;;;17.33;62.05;100970.25;4937386;29;1231;-57
2022/06/18 05:45:49;;;;;;;;;;;;;;;17.31;70.84;100980.69;4941214;29;1289;-57
2022/06/18 05:48:14;;;;;;;;;;;;;;;18.92;71.20;100977.34;4938124;29;884;-58
2022/06/18 05:50:40;;;;;;;;;;;;;;;19.71;61.96;100976.47;4936557;29;1239;-57
2022/06/18 05:53:06;;;;;;;;;;;;;;;20.10;55.41;100974.75;4939974;29;1145;-57
2022/06/18 05:56:06;;;;;;;;;;;;;;;17.41;64.06;100994.44;4925338;29;1220;-58
2022/06/18 05:58:58;;;;;;;;;;;;;;;19.17;63.14;100994.00;4938578;29;1045;-59
2022/06/18 06:01:27;;;;;;;;;;;;;;;19.12;61.38;100998.41;4937595;29;1328;-56
2022/06/18 06:03:53;;;;;;;;;;;;;;;19.07;60.34;101004.00;4948166;29;1377;-57
2022/06/18 06:06:19;;;;;;;;;;;;;;;18.95;59.63;101001.56;4948772;29;1330;-57
2022/06/18 06:08:47;;;;;;;;;;;;;;;18.93;59.04;101008.50;4940129;29;1183;-58
2022/06/18 06:11:32;;;;;;;;;;;;;;;18.89;58.49;100999.13;4940252;29;1007;-57
2022/06/18 06:14:00;;;;;;;;;;;;;;;18.81;57.98;101006.03;4968031;28;1401;-56
2022/06/18 06:16:26;;;;;;;;;;;;;;;18.76;57.84;100997.78;4951843;28;1935;-57
2022/06/18 06:18:52;;;;;;;;;;;;;;;18.68;57.91;100993.69;4941159;28;1127;-56
2022/06/18 06:21:17;;;;;;;;;;;;;;;18.65;57.54;101005.28;4942956;29;955;-57
2022/06/18 06:23:43;;;;;;;;;;;;;;;18.60;57.41;100997.03;4947284;28;1279;-58
2022/06/18 06:26:16;;;;;;;;;;;;;;;18.57;57.13;100986.59;4944404;29;999;-57
2022/06/18 06:28:43;;;;;;;;;;;;;;;18.51;57.37;101001.47;4939821;29;1307;-57
2022/06/18 06:31:08;;;;;;;;;;;;;;;18.43;57.18;101000.94;4938435;29;948;-57
2022/06/18 06:33:34;;;;;;;;;;;;;;;18.39;57.00;100997.09;4940193;29;968;-57
2022/06/18 06:35:59;;;;;;;;;;;;;;;18.37;57.10;101003.97;4939105;29;999;-58
2022/06/18 06:38:25;;;;;;;;;;;;;;;18.32;57.00;101002.09;4940386;29;1989;-56
2022/06/18 06:40:50;;;;;;;;;;;;;;;18.28;56.85;101006.50;4944055;29;1050;-58
2022/06/18 06:43:16;;;;;;;;;;;;;;;18.27;56.65;101021.34;4940921;29;1548;-59
2022/06/18 06:45:43;;;;;;;;;;;;;;;18.23;56.65;101014.75;4943215;29;1277;-57
2022/06/18 06:48:09;;;;;;;;;;;;;;;18.17;56.69;101026.88;4940661;29;1019;-57
2022/06/18 06:50:34;;;;;;;;;;;;;;;18.33;58.00;101030.44;4942547;29;1177;-57
2022/06/18 06:52:59;;;;;;;;;;;;;;;19.22;60.68;101032.56;4960031;28;1376;-57
2022/06/18 06:58:13;;;;;;;;;;;;;;;18.77;67.08;101036.06;4968794;28;1914;-57
2022/06/18 07:00:40;;;;;;;;;;;;;;;17.82;64.16;101042.31;4965347;28;1095;-57
2022/06/18 07:03:05;;;;;;;;;;;;;;;17.14;72.38;101046.91;4959089;28;1157;-57
2022/06/18 07:05:30;;;;;;;;;;;;;;;19.18;65.99;101043.34;4959556;29;1007;-57
2022/06/18 07:07:56;;;;;;;;;;;;;;;16.70;67.33;101053.56;4970425;28;974;-58
2022/06/18 07:10:21;;;;;;;;;;;;;;;17.42;69.31;101056.56;4965061;28;1003;-57
2022/06/18 07:12:47;;;;;;;;;;;;;;;18.17;63.50;101055.22;4962378;28;994;-55
2022/06/18 07:15:12;;;;;;;;;;;;;;;18.37;61.13;101062.66;4959181;29;1074;-57
2022/06/18 07:17:38;;;;;;;;;;;;;;;18.42;59.72;101061.78;4960813;28;1898;-57
2022/06/18 07:20:03;;;;;;;;;;;;;;;18.39;59.15;101052.16;4962984;28;1026;-57
2022/06/18 07:22:30;;;;;;;;;;;;;;;18.38;58.39;101050.50;4958838;29;983;-57
2022/06/18 07:24:56;;;;;;;;;;;;;;;18.37;57.95;101054.38;4959161;29;1034;-50
2022/06/18 07:27:22;;;;;;;;;;;;;;;18.34;57.98;101054.94;4959287;29;1173;-56
2022/06/18 07:29:47;;;;;;;;;;;;;;;18.29;57.72;101063.22;4964684;28;930;-58
2022/06/18 07:32:14;;;;;;;;;;;;;;;18.29;57.64;101063.22;4962069;28;1035;-57
2022/06/18 07:34:39;;;;;;;;;;;;;;;18.26;57.47;101069.28;4966710;28;1188;-57
2022/06/18 07:37:05;;;;;;;;;;;;;;;18.17;57.19;101066.22;4961720;28;1902;-56
2022/06/18 07:39:30;;;;;;;;;;;;;;;18.58;60.28;101068.91;4975574;28;1295;-58
2022/06/18 07:41:56;;;;;;;;;;;;;;;18.98;62.25;101069.06;4963039;28;1334;-57
2022/06/18 07:44:22;;;;;;;;;;;;;;;17.15;69.24;101072.44;4958528;28;1093;-57
2022/06/18 07:46:47;;;;;;;;;;;;;;;18.94;67.83;101062.47;4961555;28;1205;-56
2022/06/18 07:49:16;;;;;;;;;;;;;;;17.35;64.96;101067.00;4959041;29;971;-57
2022/06/18 07:51:41;;;;;;;;;;;;;;;17.05;70.98;101071.31;4967631;28;1234;-56
2022/06/18 07:54:07;;;;;;;;;;;;;;;18.00;64.30;101072.03;4967829;28;1031;-56
2022/06/18 07:56:32;;;;;;;;;;;;;;;18.29;61.22;101065.97;4963484;28;1910;-56
2022/06/18 07:58:58;;;;;;;;;;;;;;;18.36;59.92;101058.22;4967091;28;1062;-56
2022/06/18 08:01:23;;;;;;;;;;;;;;;18.39;59.27;101065.94;4959055;28;1465;-56
2022/06/18 08:03:49;;;;;;;;;;;;;;;18.38;58.85;101063.47;4958573;28;1050;-56
2022/06/18 08:06:14;;;;;;;;;;;;;;;18.35;58.18;101062.09;4960992;28;1137;-56
2022/06/18 08:08:40;;;;;;;;;;;;;;;18.31;58.07;101055.47;4966693;28;1081;-57
2022/06/18 08:11:06;;;;;;;;;;;;;;;18.26;57.76;101052.75;4960218;28;1248;-58
2022/06/18 08:13:31;;;;;;;;;;;;;;;18.21;57.63;101052.75;4961649;28;1274;-57
2022/06/18 08:15:57;;;;;;;;;;;;;;;18.28;57.96;101061.56;4967601;28;1079;-57
2022/06/18 08:18:22;;;;;;;;;;;;;;;18.53;59.99;101059.84;4974736;28;1918;-57
2022/06/18 08:20:48;;;;;;;;;;;;;;;19.09;62.62;101062.41;4964813;28;935;-58
2022/06/18 08:23:13;;;;;;;;;;;;;;;17.06;69.25;101064.72;4972679;28;1078;-58
2022/06/18 08:25:39;;;;;;;;;;;;;;;18.75;70.55;101056.75;4968666;28;1078;-57
2022/06/18 08:28:04;;;;;;;;;;;;;;;17.73;65.98;101048.34;4946484;29;1331;-58
2022/06/18 08:30:30;;;;;;;;;;;;;;;17.12;72.15;101051.00;4958655;29;1010;-58
2022/06/18 08:32:55;;;;;;;;;;;;;;;17.93;66.18;101046.72;4951311;28;1182;-57
2022/06/18 08:35:21;;;;;;;;;;;;;;;18.35;62.19;101048.31;4966880;28;1042;-59
2022/06/18 08:37:46;;;;;;;;;;;;;;;18.44;60.54;101049.41;4964148;28;1910;-58
2022/06/18 08:40:37;;;;;;;;;;;;;;;18.43;59.64;101047.75;4940048;29;1257;-57
2022/06/18 08:43:21;;;;;;;;;;;;;;;18.41;58.72;101044.47;4943574;29;1125;-57
2022/06/18 08:46:06;;;;;;;;;;;;;;;18.43;58.11;101045.00;4957973;29;983;-58
2022/06/18 08:48:37;;;;;;;;;;;;;;;18.35;57.88;101040.06;4953400;29;959;-57
2022/06/18 08:51:22;;;;;;;;;;;;;;;18.29;57.76;101035.69;4957351;29;1171;-57
2022/06/18 08:53:56;;;;;;;;;;;;;;;18.27;57.52;101049.72;4956838;28;1001;-57
2022/06/18 08:56:37;;;;;;;;;;;;;;;18.23;57.25;101034.03;4958148;29;1985;-57
2022/06/18 08:59:23;;;;;;;;;;;;;;;18.17;57.21;101041.47;4962726;28;965;-57
2022/06/18 09:01:55;;;;;;;;;;;;;;;18.36;59.08;101041.72;4948694;29;1089;-57
2022/06/18 09:04:21;;;;;;;;;;;;;;;19.28;62.00;101034.19;4955046;29;1061;-57
2022/06/18 09:07:06;;;;;;;;;;;;;;;16.98;65.24;101040.53;4962934;28;931;-57
2022/06/18 09:09:44;;;;;;;;;;;;;;;18.76;69.02;101045.44;4918188;29;1215;-56
2022/06/18 09:12:14;;;;;;;;;;;;;;;17.61;65.35;101034.03;4957523;28;944;-57
2022/06/18 09:14:42;;;;;;;;;;;;;;;17.15;71.52;101040.28;4940234;29;1411;-57
2022/06/18 09:17:21;;;;;;;;;;;;;;;18.00;65.44;101044.53;4957836;29;1910;-58
2022/06/18 09:19:49;;;;;;;;;;;;;;;18.38;61.65;101035.94;4957803;29;1030;-58
2022/06/18 09:22:16;;;;;;;;;;;;;;;18.42;60.27;101042.53;4961409;28;1028;-56
2022/06/18 09:24:42;;;;;;;;;;;;;;;18.43;59.33;101039.50;4943411;29;902;-58
2022/06/18 09:27:10;;;;;;;;;;;;;;;18.40;58.83;101042.81;4959612;28;1196;-58
2022/06/18 09:29:40;;;;;;;;;;;;;;;18.38;58.25;101038.69;4961512;29;1097;-57
2022/06/18 09:32:29;;;;;;;;;;;;;;;18.36;58.10;101033.47;4961270;29;1353;-58
2022/06/18 09:35:04;;;;;;;;;;;;;;;18.32;57.57;101037.88;4950446;29;1398;-61
2022/06/18 09:37:35;;;;;;;;;;;;;;;18.27;57.56;101043.38;4963436;28;1981;-61
2022/06/18 09:40:01;;;;;;;;;;;;;;;18.20;57.51;101032.69;4961010;29;1042;-61
2022/06/18 09:42:32;;;;;;;;;;;;;;;18.21;57.32;101047.25;4943191;29;1185;-60
2022/06/18 09:45:02;;;;;;;;;;;;;;;18.16;57.34;101042.59;4955083;29;974;-60
2022/06/18 09:47:37;;;;;;;;;;;;;;;18.11;57.01;101042.59;4961100;29;1280;-60
2022/06/18 09:50:02;;;;;;;;;;;;;;;18.78;60.96;101037.72;4960861;28;898;-60
2022/06/18 09:52:35;;;;;;;;;;;;;;;18.22;63.37;101046.16;4967567;28;1110;-61
2022/06/18 09:55:04;;;;;;;;;;;;;;;17.56;71.00;101045.88;4964065;28;1054;-60
2022/06/18 09:57:31;;;;;;;;;;;;;;;19.32;66.67;101046.28;4943334;29;1915;-59
2022/06/18 10:00:04;;;;;;;;;;;;;;;16.82;65.67;101041.56;4956071;28;1002;-60
2022/06/18 10:02:34;;;;;;;;;;;;;;;18.08;72.02;101060.47;4963046;28;856;-60
2022/06/18 10:07:44;;;;;;;;;;;;;;;17.02;72.28;101051.81;4949515;28;1070;-60
2022/06/18 10:10:13;;;;;;;;;;;;;;;17.88;66.55;101043.94;4943635;29;1178;-60
2022/06/18 10:12:49;;;;;;;;;;;;;;;18.32;62.79;101043.38;4960229;29;1073;-59
2022/06/18 10:15:15;;;;;;;;;;;;;;;18.42;60.86;101035.06;4937473;29;892;-59
2022/06/18 10:17:55;;;;;;;;;;;;;;;18.42;59.88;101032.31;4954368;29;1983;-60
2022/06/18 10:20:21;;;;;;;;;;;;;;;18.41;59.00;101049.97;4955375;29;1058;-60
2022/06/18 10:23:01;;;;;;;;;;;;;;;18.39;58.76;101046.66;4965221;28;1034;-60
2022/06/18 10:25:45;;;;;;;;;;;;;;;18.41;58.43;101049.13;4943868;28;988;-59
2022/06/18 10:28:18;;;;;;;;;;;;;;;18.44;58.09;101043.09;4959484;29;1030;-59
2022/06/18 10:30:47;;;;;;;;;;;;;;;18.37;57.87;101039.78;4943147;29;984;-58
2022/06/18 10:33:23;;;;;;;;;;;;;;;18.37;57.82;101045.28;4960508;29;1053;-59
2022/06/18 10:35:54;;;;;;;;;;;;;;;18.32;57.37;101051.63;4964262;28;1192;-59
2022/06/18 10:38:25;;;;;;;;;;;;;;;18.26;57.43;101036.25;4941433;29;1918;-59
2022/06/18 10:41:06;;;;;;;;;;;;;;;18.26;57.13;101036.25;4959439;29;1201;-59
2022/06/18 10:43:52;;;;;;;;;;;;;;;19.00;61.64;101039.31;4960172;28;1026;-59
2022/06/18 10:46:18;;;;;;;;;;;;;;;17.26;65.62;101032.91;4929685;29;1563;-58
2022/06/18 10:48:44;;;;;;;;;;;;;;;18.21;71.73;101031.56;4959653;29;1030;-59
2022/06/18 10:51:14;;;;;;;;;;;;;;;19.17;65.90;101052.72;4958382;28;1473;-61
2022/06/18 10:54:11;;;;;;;;;;;;;;;16.84;71.34;101042.09;4959504;29;868;-59
2022/06/18 10:56:52;;;;;;;;;;;;;;;17.85;66.57;101039.84;4917209;29;1973;-60
2022/06/18 10:59:34;;;;;;;;;;;;;;;18.35;62.34;101053.00;4962998;28;1046;-60
2022/06/18 11:02:11;;;;;;;;;;;;;;;18.45;60.35;101058.47;4959351;29;1177;-58
2022/06/18 11:04:37;;;;;;;;;;;;;;;18.46;59.37;101066.47;4954506;28;936;-58
2022/06/18 11:07:05;;;;;;;;;;;;;;;18.44;58.86;101062.34;4965168;28;847;-58
2022/06/18 11:09:32;;;;;;;;;;;;;;;18.37;58.22;101053.53;4959336;29;991;-60
2022/06/18 11:11:58;;;;;;;;;;;;;;;18.38;57.96;101055.19;4959342;29;1050;-61
2022/06/18 11:14:24;;;;;;;;;;;;;;;18.32;57.64;101062.66;4959315;29;1165;-59
2022/06/18 11:16:51;;;;;;;;;;;;;;;18.29;57.58;101074.22;4941527;29;1971;-59
2022/06/18 11:19:18;;;;;;;;;;;;;;;18.26;57.50;101074.78;4960979;28;1313;-58
2022/06/18 11:21:43;;;;;;;;;;;;;;;18.21;57.29;101063.78;4957875;28;880;-59
2022/06/18 11:24:12;;;;;;;;;;;;;;;18.17;57.30;101073.69;4960638;28;1173;-59
2022/06/18 11:26:40;;;;;;;;;;;;;;;18.45;59.84;101066.75;4962321;28;1082;-59
2022/06/18 11:29:13;;;;;;;;;;;;;;;19.32;62.35;101073.84;4970283;28;1312;-60
2022/06/18 11:31:43;;;;;;;;;;;;;;;16.92;67.88;101069.09;4941092;29;1111;-58
2022/06/18 11:34:19;;;;;;;;;;;;;;;18.72;69.55;101068.31;4958907;29;1003;-59
2022/06/18 11:36:46;;;;;;;;;;;;;;;17.34;65.45;101072.78;4959484;28;1902;-57
2022/06/18 11:39:31;;;;;;;;;;;;;;;17.34;73.13;101070.03;4958705;29;1026;-58
2022/06/18 11:41:59;;;;;;;;;;;;;;;19.09;66.22;101081.69;4958666;29;1125;-58
2022/06/18 11:44:26;;;;;;;;;;;;;;;16.75;71.31;101081.06;4958629;29;828;-58
2022/06/18 11:47:00;;;;;;;;;;;;;;;18.32;71.29;101089.34;4961344;28;1011;-58
2022/06/18 11:49:27;;;;;;;;;;;;;;;17.69;66.24;101087.69;4958983;28;1046;-58
2022/06/18 11:51:55;;;;;;;;;;;;;;;17.01;72.26;101094.94;4941554;29;1062;-58
2022/06/18 11:54:20;;;;;;;;;;;;;;;17.92;65.98;101091.84;4941639;29;1117;-58
2022/06/18 11:57:12;;;;;;;;;;;;;;;18.43;62.47;101094.56;4957896;29;1967;-56
2022/06/18 11:59:56;;;;;;;;;;;;;;;18.63;60.81;101087.34;4938544;29;1389;-57
2022/06/18 12:02:40;;;;;;;;;;;;;;;18.63;59.84;101087.34;4956112;28;1080;-55
2022/06/18 12:05:13;;;;;;;;;;;;;;;18.58;59.07;101084.59;4955314;28;1326;-56
2022/06/18 12:07:43;;;;;;;;;;;;;;;18.51;58.68;101089.56;4935029;29;1081;-54
2022/06/18 12:10:12;;;;;;;;;;;;;;;18.42;58.25;101095.66;4940679;28;1047;-55
2022/06/18 12:12:56;;;;;;;;;;;;;;;18.41;57.93;101099.53;4946477;28;1039;-56
2022/06/18 12:15:22;;;;;;;;;;;;;;;18.34;57.47;101090.75;4958326;29;991;-57
2022/06/18 12:17:52;;;;;;;;;;;;;;;18.29;57.69;101096.25;4957952;29;1981;-57
2022/06/18 12:20:18;;;;;;;;;;;;;;;18.26;57.35;101088.53;4940733;28;1019;-58
2022/06/18 12:22:48;;;;;;;;;;;;;;;18.22;57.27;101102.03;4962824;28;926;-58
2022/06/18 12:25:33;;;;;;;;;;;;;;;18.18;57.14;101100.09;4960200;28;1177;-58
2022/06/18 12:28:02;;;;;;;;;;;;;;;18.80;61.30;101106.31;4957471;28;951;-58
2022/06/18 12:30:29;;;;;;;;;;;;;;;18.17;64.22;101115.78;4957356;28;990;-58
2022/06/18 12:33:09;;;;;;;;;;;;;;;17.52;71.26;101116.25;4940291;29;983;-58
2022/06/18 12:35:37;;;;;;;;;;;;;;;19.32;67.57;101116.03;4940027;29;1141;-58
2022/06/18 12:38:05;;;;;;;;;;;;;;;16.73;68.67;101109.88;4957707;28;1907;-58
2022/06/18 12:40:36;;;;;;;;;;;;;;;17.43;70.01;101115.97;4957419;28;1237;-58
2022/06/18 12:43:05;;;;;;;;;;;;;;;18.20;63.64;101108.91;4957782;29;1042;-58
2022/06/18 12:45:48;;;;;;;;;;;;;;;18.36;61.02;101107.78;4940650;29;1191;-58
2022/06/18 12:48:14;;;;;;;;;;;;;;;18.41;59.64;101105.03;4956982;29;904;-58
2022/06/18 12:50:46;;;;;;;;;;;;;;;18.42;58.88;101103.09;4957325;29;1493;-59
2022/06/18 12:53:29;;;;;;;;;;;;;;;18.37;58.46;101111.34;4958464;28;1146;-58
2022/06/18 12:56:13;;;;;;;;;;;;;;;18.30;57.97;101103.41;4940049;29;1061;-58
2022/06/18 12:58:41;;;;;;;;;;;;;;;18.27;57.63;101104.78;4955646;28;1985;-58
2022/06/18 13:01:07;;;;;;;;;;;;;;;18.19;57.48;101107.25;4957934;28;931;-58
2022/06/18 13:03:42;;;;;;;;;;;;;;;18.22;57.79;101106.72;4962067;28;1141;-58
2022/06/18 13:06:11;;;;;;;;;;;;;;;19.07;62.14;101097.69;4943596;29;891;-58
2022/06/18 13:08:36;;;;;;;;;;;;;;;17.40;64.94;101102.78;4961006;28;928;-58
2022/06/18 13:11:01;;;;;;;;;;;;;;;18.03;71.54;101096.25;4961663;29;983;-58
2022/06/18 13:13:27;;;;;;;;;;;;;;;19.27;65.77;101088.50;4960965;28;1062;-58